Time;durP1;ratioP1;P1;durP2;ratioP2;P2;SDS_P1;SDS_P2;PMS_P1;PMS_P2;Temp;Humidity;BMP_temperature;BMP_pressure;BME280_temperature;BME280_humidity;BME280_pressure;Samples;Min_cycle;Max_cycle;Signal;HPM_P1;HPM_P2
2023/07/22 00:01:23;;;;;;;3.78;3.47;;;24.30;47.20;;;;;;6142753;22;87491;-90
2023/07/22 00:03:48;;;;;;;3.67;3.33;;;24.30;47.00;;;;;;6114996;22;89313;-93
2023/07/22 00:06:14;;;;;;;4.05;3.60;;;24.30;47.40;;;;;;6143597;22;87905;-93
2023/07/22 00:08:40;;;;;;;3.97;3.50;;;24.30;47.70;;;;;;6142715;22;87757;-94
2023/07/22 00:11:06;;;;;;;3.50;3.20;;;24.30;47.30;;;;;;6115001;22;88410;-94
2023/07/22 00:13:32;;;;;;;3.83;3.42;;;24.20;47.50;;;;;;6144225;22;88141;-93
2023/07/22 00:16:03;;;;;;;4.43;4.03;;;24.30;47.30;;;;;;6144047;22;89172;-93
2023/07/22 00:18:30;;;;;;;3.70;3.40;;;24.30;47.30;;;;;;6116792;22;90375;-95
2023/07/22 00:20:56;;;;;;;3.88;3.58;;;24.20;47.40;;;;;;6117924;22;87366;-94
2023/07/22 00:23:22;;;;;;;3.95;3.55;;;24.20;47.30;;;;;;6117989;22;87036;-89
2023/07/22 00:25:48;;;;;;;4.28;3.63;;;24.20;47.60;;;;;;6144077;22;89598;-92
2023/07/22 00:28:14;;;;;;;5.20;4.05;;;24.30;47.50;;;;;;6117166;22;89906;-90
2023/07/22 00:30:41;;;;;;;5.03;4.15;;;24.20;47.80;;;;;;6116588;22;87176;-92
2023/07/22 00:33:07;;;;;;;3.67;3.30;;;24.20;47.60;;;;;;6118000;22;89643;-90
2023/07/22 00:35:32;;;;;;;3.78;3.47;;;24.20;48.00;;;;;;6144022;22;89463;-91
2023/07/22 00:37:59;;;;;;;3.95;3.58;;;24.20;47.40;;;;;;6117310;22;90515;-89
2023/07/22 00:40:25;;;;;;;4.32;3.83;;;24.20;47.90;;;;;;6143681;22;86879;-92
2023/07/22 00:42:50;;;;;;;3.92;3.53;;;24.20;47.30;;;;;;6116502;22;89278;-93
2023/07/22 00:45:16;;;;;;;4.25;3.85;;;24.20;47.40;;;;;;6118649;22;90487;-95
2023/07/22 00:47:43;;;;;;;4.22;3.83;;;24.20;47.30;;;;;;6143525;22;93487;-92
2023/07/22 00:50:08;;;;;;;3.88;3.47;;;24.30;47.40;;;;;;6144167;22;87408;-95
2023/07/22 00:52:34;;;;;;;4.22;3.83;;;24.20;47.30;;;;;;6117888;22;86670;-90
2023/07/22 00:55:01;;;;;;;3.72;3.33;;;24.20;47.60;;;;;;6117956;22;90489;-91
2023/07/22 00:57:26;;;;;;;4.10;3.70;;;24.20;47.80;;;;;;6145611;22;95223;-92
2023/07/22 00:59:53;;;;;;;5.20;3.78;;;24.20;48.00;;;;;;6145763;22;89114;-93
2023/07/22 01:02:20;;;;;;;4.15;3.75;;;24.20;47.50;;;;;;6144264;22;87730;-93
2023/07/22 01:04:46;;;;;;;5.05;4.55;;;24.20;47.80;;;;;;6143873;22;87479;-91
2023/07/22 01:07:13;;;;;;;4.47;4.07;;;24.20;47.60;;;;;;6118279;22;90104;-92
2023/07/22 01:09:42;;;;;;;3.58;3.28;;;24.20;48.10;;;;;;6117930;22;87326;-92
2023/07/22 01:12:09;;;;;;;3.55;3.25;;;24.10;47.60;;;;;;6144521;22;86964;-91
2023/07/22 01:14:36;;;;;;;4.35;3.85;;;24.10;48.00;;;;;;6143467;22;88567;-90
2023/07/22 01:17:04;;;;;;;3.63;3.33;;;24.10;47.80;;;;;;6116913;22;90157;-93
2023/07/22 01:19:31;;;;;;;4.28;3.88;;;24.20;48.20;;;;;;6117186;22;87500;-93
2023/07/22 01:22:03;;;;;;;3.75;3.45;;;24.10;47.90;;;;;;6116979;22;89280;-89
2023/07/22 01:24:29;;;;;;;3.85;3.45;;;24.10;47.90;;;;;;6115137;22;91775;-95
2023/07/22 01:26:55;;;;;;;4.43;4.03;;;24.20;47.80;;;;;;6145610;22;88427;-94
2023/07/22 01:29:22;;;;;;;3.80;3.50;;;24.10;47.70;;;;;;6116904;22;87145;-90
2023/07/22 01:31:51;;;;;;;4.32;3.92;;;24.10;47.90;;;;;;6144135;22;87417;-90
2023/07/22 01:34:17;;;;;;;4.37;3.90;;;24.10;48.00;;;;;;6144072;22;88808;-93
2023/07/22 01:36:43;;;;;;;4.15;3.58;;;24.10;47.90;;;;;;6144006;22;87573;-91
2023/07/22 01:39:10;;;;;;;3.72;3.42;;;24.10;47.90;;;;;;6145885;22;87041;-93
2023/07/22 01:41:36;;;;;;;3.90;3.60;;;24.10;48.30;;;;;;6144029;22;86613;-93
2023/07/22 01:44:02;;;;;;;4.75;4.10;;;24.10;48.00;;;;;;6144409;22;87792;-93
2023/07/22 01:46:28;;;;;;;4.25;3.85;;;24.10;48.40;;;;;;6117581;22;87731;-92
2023/07/22 01:48:55;;;;;;;4.03;3.65;;;24.10;48.30;;;;;;6119601;22;88029;-91
2023/07/22 01:51:21;;;;;;;4.60;4.00;;;24.10;48.40;;;;;;6148693;22;87426;-94
2023/07/22 01:53:47;;;;;;;3.92;3.55;;;24.10;47.90;;;;;;6122434;22;90309;-90
2023/07/22 01:56:13;;;;;;;4.00;3.63;;;24.10;48.20;;;;;;6122635;22;89315;-92
2023/07/22 01:58:39;;;;;;;3.50;3.20;;;24.10;48.30;;;;;;6122230;22;87167;-94
2023/07/22 02:01:04;;;;;;;3.88;3.50;;;24.00;48.30;;;;;;6148060;22;87435;-92
2023/07/22 02:03:31;;;;;;;3.88;3.20;;;24.00;48.50;;;;;;6121974;22;90434;-93
2023/07/22 02:06:03;;;;;;;4.20;3.80;;;24.00;48.50;;;;;;6151655;22;87589;-93
2023/07/22 02:08:29;;;;;;;3.88;3.55;;;24.00;48.40;;;;;;6150253;22;87266;-91
2023/07/22 02:10:58;;;;;;;3.60;3.30;;;24.00;48.00;;;;;;6149446;22;87561;-94
2023/07/22 02:13:24;;;;;;;3.65;3.33;;;24.00;48.30;;;;;;6121698;22;90063;-93
2023/07/22 02:15:49;;;;;;;4.28;3.88;;;24.00;48.40;;;;;;6122549;22;91315;-95
2023/07/22 02:18:15;;;;;;;3.90;3.60;;;24.00;48.60;;;;;;6123470;22;87688;-90
2023/07/22 02:20:43;;;;;;;3.83;3.28;;;24.00;48.60;;;;;;6122310;22;88946;-92
2023/07/22 02:23:09;;;;;;;4.15;3.75;;;24.00;48.20;;;;;;6148368;22;87883;-92
2023/07/22 02:25:35;;;;;;;3.95;3.60;;;24.00;48.20;;;;;;6121803;22;90163;-92
2023/07/22 02:28:01;;;;;;;4.22;3.83;;;24.00;48.80;;;;;;6148564;22;86924;-94
2023/07/22 02:30:27;;;;;;;4.07;3.67;;;24.00;48.80;;;;;;6123064;22;89772;-91
2023/07/22 02:32:52;;;;;;;3.72;3.42;;;24.00;48.30;;;;;;6150225;22;88231;-88
2023/07/22 02:35:18;;;;;;;3.88;3.58;;;24.00;48.80;;;;;;6149212;22;87693;-93
2023/07/22 02:37:44;;;;;;;4.05;3.65;;;24.00;48.80;;;;;;6149121;22;88651;-94
2023/07/22 02:40:11;;;;;;;3.83;3.53;;;24.00;48.80;;;;;;6121798;22;89400;-92
2023/07/22 02:42:37;;;;;;;3.97;3.67;;;24.00;48.40;;;;;;6148490;22;88069;-93
2023/07/22 02:45:04;;;;;;;4.40;3.47;;;24.00;48.30;;;;;;6123279;22;90153;-91
2023/07/22 02:47:32;;;;;;;3.92;3.55;;;24.00;48.80;;;;;;6121210;22;87081;-95
2023/07/22 02:49:57;;;;;;;4.03;3.72;;;24.00;48.80;;;;;;6146944;22;87205;-93
2023/07/22 02:52:23;;;;;;;3.97;3.58;;;24.00;48.80;;;;;;6148305;22;87995;-90
2023/07/22 02:55:24;;;;;;;3.65;3.33;;;24.00;48.80;;;;;;6148957;22;87811;-92
2023/07/22 02:57:50;;;;;;;3.90;3.60;;;24.00;48.90;;;;;;6086364;23;87007;-92
2023/07/22 03:00:23;;;;;;;5.72;3.60;;;24.00;48.50;;;;;;6136762;22;87882;-94
2023/07/22 03:02:50;;;;;;;3.90;3.60;;;24.00;48.60;;;;;;6122806;22;95502;-91
2023/07/22 03:05:16;;;;;;;4.10;3.70;;;24.00;48.60;;;;;;6121965;22;90849;-93
2023/07/22 03:07:42;;;;;;;4.32;3.92;;;24.00;48.90;;;;;;6149428;22;87729;-94
2023/07/22 03:10:08;;;;;;;3.80;3.50;;;24.00;48.90;;;;;;6123112;22;90184;-88
2023/07/22 03:12:35;;;;;;;3.72;3.42;;;24.00;49.00;;;;;;6149369;22;88302;-92
2023/07/22 03:15:08;;;;;;;4.07;3.67;;;24.00;48.70;;;;;;6149490;22;87576;-90
2023/07/22 03:17:35;;;;;;;3.97;3.58;;;23.90;48.90;;;;;;6148029;22;87651;-91
2023/07/22 03:20:01;;;;;;;4.00;3.70;;;24.00;49.10;;;;;;6148712;22;86836;-93
2023/07/22 03:22:26;;;;;;;3.60;3.20;;;24.00;48.80;;;;;;6118172;22;92343;-93
2023/07/22 03:24:52;;;;;;;4.13;3.72;;;24.00;49.00;;;;;;6115844;22;90366;-91
2023/07/22 03:27:21;;;;;;;3.35;3.05;;;24.00;48.50;;;;;;6117463;22;88225;-91
2023/07/22 03:29:46;;;;;;;4.10;3.47;;;24.00;48.80;;;;;;6118174;22;89632;-93
2023/07/22 03:32:12;;;;;;;3.65;3.35;;;24.00;49.00;;;;;;6116677;22;90574;-93
2023/07/22 03:34:38;;;;;;;3.83;3.47;;;24.00;48.90;;;;;;6147074;22;87859;-90
2023/07/22 03:37:03;;;;;;;3.50;3.20;;;23.90;49.00;;;;;;6121209;22;87242;-92
2023/07/22 03:39:29;;;;;;;4.32;3.28;;;24.00;49.00;;;;;;6120436;22;89702;-89
2023/07/22 03:41:54;;;;;;;3.60;3.30;;;23.90;48.90;;;;;;6122623;22;90130;-93
2023/07/22 03:44:20;;;;;;;4.38;3.97;;;23.90;48.90;;;;;;6122061;22;90347;-94
2023/07/22 03:46:46;;;;;;;4.35;3.95;;;23.90;48.90;;;;;;6148733;22;87064;-91
2023/07/22 03:49:13;;;;;;;3.90;3.55;;;23.90;48.90;;;;;;6146426;22;87211;-92
2023/07/22 03:51:39;;;;;;;3.63;3.33;;;24.00;48.90;;;;;;6119344;22;91412;-90
2023/07/22 03:54:05;;;;;;;4.10;3.70;;;24.00;48.60;;;;;;6121349;22;91140;-91
2023/07/22 03:56:30;;;;;;;3.97;3.58;;;24.00;48.90;;;;;;6147805;22;87750;-92
2023/07/22 03:58:56;;;;;;;4.22;3.83;;;24.00;48.80;;;;;;6120300;22;87700;-92
2023/07/22 04:01:22;;;;;;;3.33;3.03;;;23.90;48.80;;;;;;6120998;22;90794;-94
2023/07/22 04:03:47;;;;;;;4.15;3.75;;;24.00;48.40;;;;;;6146595;22;88020;-93
2023/07/22 04:06:13;;;;;;;3.60;3.30;;;24.00;49.00;;;;;;6121683;22;87205;-91
2023/07/22 04:08:41;;;;;;;4.18;3.78;;;24.00;48.80;;;;;;6120801;22;88376;-93
2023/07/22 04:11:06;;;;;;;3.55;3.25;;;24.00;48.60;;;;;;6120616;22;89220;-90
2023/07/22 04:13:32;;;;;;;3.90;3.50;;;24.00;48.40;;;;;;6147091;22;88096;-91
2023/07/22 04:15:58;;;;;;;4.15;3.63;;;24.00;48.80;;;;;;6119506;22;88279;-92
2023/07/22 04:18:23;;;;;;;3.70;3.40;;;24.00;48.80;;;;;;6118847;22;87639;-92
2023/07/22 04:20:57;;;;;;;3.55;3.25;;;24.00;48.80;;;;;;6120137;22;90237;-93
2023/07/22 04:23:22;;;;;;;4.40;4.00;;;24.00;48.70;;;;;;6146712;22;87945;-91
2023/07/22 04:25:48;;;;;;;3.35;3.05;;;24.00;48.30;;;;;;6119061;22;87375;-92
2023/07/22 04:28:14;;;;;;;3.97;3.58;;;24.00;48.30;;;;;;6146197;22;87598;-90
2023/07/22 04:30:39;;;;;;;3.80;3.50;;;23.90;48.30;;;;;;6119401;22;90634;-91
2023/07/22 04:33:05;;;;;;;3.72;3.42;;;23.90;48.70;;;;;;6147748;22;87632;-92
2023/07/22 04:35:32;;;;;;;3.53;3.22;;;23.90;48.90;;;;;;6120237;22;86916;-92
2023/07/22 04:37:58;;;;;;;4.47;3.75;;;23.90;48.60;;;;;;6121279;22;88994;-94
2023/07/22 04:40:24;;;;;;;3.50;3.20;;;23.90;48.50;;;;;;6147719;22;89158;-93
2023/07/22 04:42:51;;;;;;;3.65;3.30;;;23.90;48.50;;;;;;6120243;22;90043;-91
2023/07/22 04:45:18;;;;;;;4.68;3.88;;;23.90;48.90;;;;;;6148815;22;87673;-92
2023/07/22 04:47:46;;;;;;;4.10;3.70;;;23.80;48.50;;;;;;6121220;22;93448;-96
2023/07/22 04:50:13;;;;;;;3.35;3.05;;;23.80;49.20;;;;;;6120850;22;89619;-91
2023/07/22 04:52:42;;;;;;;3.83;3.47;;;23.80;48.50;;;;;;6119654;22;89134;-93
2023/07/22 04:55:11;;;;;;;4.07;3.67;;;23.80;48.60;;;;;;6121540;22;87474;-94
2023/07/22 04:57:40;;;;;;;4.10;3.60;;;23.80;48.50;;;;;;6121975;22;88915;-94
2023/07/22 05:00:09;;;;;;;3.47;3.17;;;23.80;48.90;;;;;;6149399;22;87375;-92
2023/07/22 05:02:35;;;;;;;3.75;3.45;;;23.90;48.70;;;;;;6144284;22;89185;-91
2023/07/22 05:05:01;;;;;;;4.97;3.33;;;23.90;48.60;;;;;;6115917;22;88521;-93
2023/07/22 05:07:26;;;;;;;3.58;3.28;;;23.90;48.70;;;;;;6117184;22;88887;-94
2023/07/22 05:09:53;;;;;;;3.83;3.47;;;23.90;48.70;;;;;;6116835;22;90387;-91
2023/07/22 05:12:18;;;;;;;3.47;3.17;;;23.90;48.80;;;;;;6117170;22;89183;-93
2023/07/22 05:14:48;;;;;;;3.78;3.47;;;23.90;48.70;;;;;;6144884;22;88078;-92
2023/07/22 05:17:13;;;;;;;;;;;24.00;48.60;;;;;;6143118;22;87852;-94
2023/07/22 05:19:39;;;;;;;4.38;3.97;;;24.00;48.60;;;;;;6145022;22;88487;-92
2023/07/22 05:22:04;;;;;;;4.05;3.67;;;24.00;48.50;;;;;;6116277;22;90241;-93
2023/07/22 05:24:30;;;;;;;3.42;3.13;;;24.00;48.50;;;;;;6121163;22;86967;-94
2023/07/22 05:26:56;;;;;;;4.03;3.63;;;24.00;48.80;;;;;;6122975;22;88183;-95
2023/07/22 05:29:21;;;;;;;3.72;3.35;;;24.00;48.80;;;;;;6146339;22;89389;-95
2023/07/22 05:31:48;;;;;;;3.70;3.35;;;24.10;48.60;;;;;;6122527;22;91248;-92
2023/07/22 05:34:13;;;;;;;4.25;3.42;;;24.10;49.00;;;;;;6121567;22;87382;-93
2023/07/22 05:36:40;;;;;;;3.47;3.17;;;24.10;48.70;;;;;;6122233;22;89653;-95
2023/07/22 05:39:05;;;;;;;3.50;3.20;;;24.10;48.90;;;;;;6150824;22;87873;-93
2023/07/22 05:41:33;;;;;;;3.85;3.42;;;24.00;49.20;;;;;;6121943;22;90201;-93
2023/07/22 05:43:58;;;;;;;3.60;3.30;;;24.00;48.60;;;;;;6122772;22;87555;-95
2023/07/22 05:46:24;;;;;;;3.33;3.03;;;24.00;49.00;;;;;;6123884;22;90334;-93
2023/07/22 05:48:50;;;;;;;4.28;3.90;;;24.00;48.70;;;;;;6121934;22;89779;-94
2023/07/22 05:51:16;;;;;;;4.43;4.03;;;24.00;48.80;;;;;;6151050;22;87411;-93
2023/07/22 05:53:42;;;;;;;3.58;3.28;;;24.00;48.80;;;;;;6148246;22;88654;-92
2023/07/22 05:56:07;;;;;;;3.63;3.33;;;24.00;48.80;;;;;;6149541;22;87484;-94
2023/07/22 05:58:33;;;;;;;3.72;3.42;;;24.00;48.80;;;;;;6149730;22;88023;-92
2023/07/22 06:00:58;;;;;;;3.55;3.25;;;24.00;48.90;;;;;;6134118;22;87328;-95
2023/07/22 06:03:24;;;;;;;3.33;3.03;;;24.00;49.20;;;;;;6123069;22;87547;-94
2023/07/22 06:05:50;;;;;;;3.72;3.38;;;24.00;49.20;;;;;;6122796;22;88963;-93
2023/07/22 06:08:15;;;;;;;3.58;3.28;;;24.00;49.20;;;;;;6150082;22;87861;-90
2023/07/22 06:10:42;;;;;;;3.30;3.00;;;24.00;48.90;;;;;;6149568;22;87695;-93
2023/07/22 06:13:07;;;;;;;3.55;3.25;;;24.00;48.80;;;;;;6123095;22;87514;-95
2023/07/22 06:15:33;;;;;;;3.55;3.25;;;24.00;48.80;;;;;;6122962;22;89742;-95
2023/07/22 06:18:00;;;;;;;3.83;3.53;;;24.00;48.80;;;;;;6121873;22;90729;-94
2023/07/22 06:20:26;;;;;;;4.00;3.60;;;24.00;48.80;;;;;;6122425;22;91559;-93
2023/07/22 06:22:51;;;;;;;3.33;3.03;;;24.00;49.00;;;;;;6150569;22;87573;-94
2023/07/22 06:25:17;;;;;;;4.10;3.70;;;24.00;48.80;;;;;;6150073;22;87458;-95
2023/07/22 06:27:43;;;;;;;3.70;3.30;;;24.00;48.80;;;;;;6122705;22;89121;-93
2023/07/22 06:30:09;;;;;;;3.13;2.83;;;24.00;49.00;;;;;;6149196;22;87776;-93
2023/07/22 06:32:37;;;;;;;3.50;3.20;;;24.00;48.80;;;;;;6123181;22;87556;-95
2023/07/22 06:35:03;;;;;;;3.63;3.33;;;24.10;49.00;;;;;;6149219;22;86691;-94
2023/07/22 06:37:29;;;;;;;3.85;3.53;;;24.00;49.30;;;;;;6122286;22;89509;-92
2023/07/22 06:39:55;;;;;;;3.50;3.20;;;24.10;49.10;;;;;;6122333;22;89802;-94
2023/07/22 06:42:21;;;;;;;4.20;3.80;;;24.10;49.10;;;;;;6148194;22;88429;-93
2023/07/22 06:44:47;;;;;;;3.60;3.30;;;24.10;48.90;;;;;;6149594;22;87212;-95
2023/07/22 06:47:13;;;;;;;3.63;3.33;;;24.10;48.90;;;;;;6122480;22;90742;-93
2023/07/22 06:49:39;;;;;;;3.42;3.13;;;24.10;48.80;;;;;;6122465;22;89905;-94
2023/07/22 06:52:05;;;;;;;3.30;3.00;;;24.10;49.30;;;;;;6123295;22;87525;-94
2023/07/22 06:54:30;;;;;;;3.45;3.15;;;24.10;49.10;;;;;;6122563;22;89447;-95
2023/07/22 06:56:56;;;;;;;4.28;3.88;;;24.10;48.80;;;;;;6150439;22;87502;-93
2023/07/22 06:59:22;;;;;;;3.55;3.25;;;24.10;49.30;;;;;;6122155;22;89865;-92
2023/07/22 07:01:47;;;;;;;3.25;2.97;;;24.10;48.90;;;;;;6122833;22;87413;-93
2023/07/22 07:04:13;;;;;;;3.53;3.22;;;24.10;49.20;;;;;;6148841;22;87177;-93
2023/07/22 07:06:38;;;;;;;3.65;3.22;;;24.10;49.00;;;;;;6147643;22;89552;-95
2023/07/22 07:09:05;;;;;;;3.13;2.83;;;24.10;49.40;;;;;;6122922;22;91034;-94
2023/07/22 07:11:31;;;;;;;3.55;3.25;;;24.10;48.90;;;;;;6122505;22;87186;-95
2023/07/22 07:13:57;;;;;;;3.38;3.08;;;24.10;49.30;;;;;;6122097;22;89398;-94
2023/07/22 07:16:29;;;;;;;3.72;3.42;;;24.10;49.40;;;;;;6151052;22;87644;-94
2023/07/22 07:18:55;;;;;;;3.47;3.17;;;24.10;49.50;;;;;;6136822;22;90281;-91
2023/07/22 07:21:21;;;;;;;3.88;3.47;;;24.10;48.90;;;;;;6124291;22;87339;-92
2023/07/22 07:23:51;;;;;;;4.47;3.80;;;24.10;48.90;;;;;;6120019;22;89848;-92
2023/07/22 07:26:17;;;;;;;5.28;3.75;;;24.00;49.00;;;;;;6122918;22;94172;-96
2023/07/22 07:28:43;;;;;;;5.70;3.88;;;24.00;49.00;;;;;;6120424;22;90191;-95
2023/07/22 07:31:09;;;;;;;4.35;3.92;;;24.00;49.10;;;;;;6122609;22;88340;-94
2023/07/22 07:33:35;;;;;;;5.68;3.83;;;24.00;49.10;;;;;;6148688;22;87497;-90
2023/07/22 07:36:01;;;;;;;8.70;4.28;;;24.00;49.40;;;;;;6147348;22;88179;-91
2023/07/22 07:38:28;;;;;;;6.32;4.13;;;24.00;49.40;;;;;;6118510;22;90480;-93
2023/07/22 07:40:59;;;;;;;7.18;4.50;;;24.00;49.80;;;;;;6114282;22;87352;-88
2023/07/22 07:43:25;;;;;;;7.45;3.75;;;24.00;49.90;;;;;;6113213;22;90564;-90
2023/07/22 07:46:09;;;;;;;9.65;4.13;;;24.10;50.40;;;;;;6113964;22;90615;-87
2023/07/22 07:48:35;;;;;;;8.05;4.68;;;24.10;50.30;;;;;;6139934;22;87319;-86
2023/07/22 07:51:00;;;;;;;9.27;4.72;;;24.10;50.40;;;;;;6113535;22;87455;-89
2023/07/22 07:53:28;;;;;;;10.55;4.70;;;24.10;50.60;;;;;;6138238;22;87381;-87
2023/07/22 07:55:54;;;;;;;9.40;4.20;;;24.00;50.40;;;;;;6140953;22;88450;-87
2023/07/22 07:58:19;;;;;;;9.18;4.75;;;24.00;50.50;;;;;;6139142;22;88328;-87
2023/07/22 08:00:45;;;;;;;6.75;3.60;;;24.00;50.40;;;;;;6137611;22;87469;-87
2023/07/22 08:03:10;;;;;;;6.75;3.95;;;24.00;50.30;;;;;;6112923;22;89386;-87
2023/07/22 08:05:36;;;;;;;9.48;3.80;;;24.00;50.40;;;;;;6110676;22;90657;-86
2023/07/22 08:08:02;;;;;;;9.40;3.63;;;24.10;50.30;;;;;;6111208;22;90040;-87
2023/07/22 08:10:27;;;;;;;9.15;4.13;;;24.10;50.90;;;;;;6112474;22;87366;-88
2023/07/22 08:12:53;;;;;;;6.50;3.60;;;24.00;50.70;;;;;;6139830;22;86940;-87
2023/07/22 08:15:18;;;;;;;9.50;3.95;;;24.00;51.00;;;;;;6139961;22;88250;-87
2023/07/22 08:17:44;;;;;;;8.43;3.50;;;24.10;50.40;;;;;;6111765;22;88895;-87
2023/07/22 08:20:11;;;;;;;8.20;3.50;;;24.10;50.40;;;;;;6138074;22;87774;-87
2023/07/22 08:22:37;;;;;;;8.82;3.28;;;24.10;50.30;;;;;;6112609;22;87809;-89
2023/07/22 08:25:03;;;;;;;8.00;3.25;;;24.10;50.30;;;;;;6137925;22;87518;-88
2023/07/22 08:27:28;;;;;;;6.53;2.92;;;24.10;50.40;;;;;;6113259;22;91128;-88
2023/07/22 08:29:54;;;;;;;5.13;2.88;;;24.10;50.80;;;;;;6139814;22;87305;-86
2023/07/22 08:32:20;;;;;;;12.20;3.83;;;24.10;50.50;;;;;;6112938;22;88322;-89
2023/07/22 08:34:45;;;;;;;4.43;2.97;;;24.10;50.00;;;;;;6113224;22;90301;-87
2023/07/22 08:37:11;;;;;;;5.45;2.80;;;24.20;49.80;;;;;;6113907;22;90196;-87
2023/07/22 08:39:37;;;;;;;5.28;3.03;;;24.20;49.80;;;;;;6113394;22;87097;-89
2023/07/22 08:42:05;;;;;;;8.13;2.65;;;24.20;49.60;;;;;;6140098;22;88266;-88
2023/07/22 08:44:36;;;;;;;7.32;2.97;;;24.30;49.80;;;;;;6111841;22;91532;-87
2023/07/22 08:47:05;;;;;;;9.60;3.72;;;24.20;50.30;;;;;;6138936;22;88681;-86
2023/07/22 08:49:32;;;;;;;4.97;2.70;;;24.20;49.80;;;;;;6138638;22;87802;-88
2023/07/22 08:52:00;;;;;;;10.73;3.78;;;24.20;49.70;;;;;;6139445;22;87401;-85
2023/07/22 08:54:26;;;;;;;7.80;3.05;;;24.20;49.90;;;;;;6111070;22;90361;-86
2023/07/22 08:56:52;;;;;;;10.45;3.15;;;24.20;50.10;;;;;;6114476;22;88873;-87
2023/07/22 08:59:18;;;;;;;10.95;4.18;;;24.20;49.60;;;;;;6112649;22;87168;-87
2023/07/22 09:01:45;;;;;;;11.85;4.32;;;24.20;49.60;;;;;;6140322;22;87005;-88
2023/07/22 09:04:11;;;;;;;14.68;4.18;;;24.20;49.50;;;;;;6113290;22;90198;-86
2023/07/22 09:06:37;;;;;;;11.65;4.18;;;24.20;49.40;;;;;;6137564;22;87583;-87
2023/07/22 09:09:08;;;;;;;9.45;3.92;;;24.20;49.40;;;;;;6111361;22;88627;-87
2023/07/22 09:11:34;;;;;;;10.32;3.42;;;24.20;49.30;;;;;;6139194;22;87602;-87
2023/07/22 09:14:02;;;;;;;9.98;3.05;;;24.20;49.60;;;;;;6111998;22;91089;-86
2023/07/22 09:16:29;;;;;;;7.70;3.20;;;24.20;49.40;;;;;;6112651;22;90035;-87
2023/07/22 09:18:57;;;;;;;15.45;3.60;;;24.30;48.90;;;;;;6110717;22;87542;-86
2023/07/22 09:21:22;;;;;;;7.28;3.08;;;24.30;48.90;;;;;;6112368;22;89950;-87
2023/07/22 09:23:48;;;;;;;12.35;2.90;;;24.30;49.00;;;;;;6141393;22;88457;-87
2023/07/22 09:26:17;;;;;;;6.20;3.00;;;24.30;48.70;;;;;;6141341;22;86655;-88
2023/07/22 09:28:49;;;;;;;7.28;3.42;;;24.30;48.70;;;;;;6112092;22;87707;-89
2023/07/22 09:31:14;;;;;;;7.40;2.58;;;24.30;48.80;;;;;;6112031;22;89291;-87
2023/07/22 09:33:40;;;;;;;6.85;2.83;;;24.30;48.60;;;;;;6137992;22;89254;-87
2023/07/22 09:36:06;;;;;;;10.23;3.20;;;24.30;48.20;;;;;;6113165;22;89950;-87
2023/07/22 09:38:31;;;;;;;5.60;2.42;;;24.30;48.50;;;;;;6139407;22;87837;-86
2023/07/22 09:40:57;;;;;;;7.03;2.47;;;24.30;48.10;;;;;;6138961;22;87288;-87
2023/07/22 09:43:24;;;;;;;4.32;2.35;;;24.30;48.10;;;;;;6110732;22;90814;-86
2023/07/22 09:45:49;;;;;;;7.10;2.45;;;24.30;48.10;;;;;;6110857;22;91149;-85
2023/07/22 09:48:16;;;;;;;5.32;2.58;;;24.30;48.00;;;;;;6140667;22;87475;-87
2023/07/22 09:50:41;;;;;;;4.95;1.95;;;24.30;47.70;;;;;;6139866;22;87600;-88
2023/07/22 09:53:07;;;;;;;7.30;2.47;;;24.30;47.60;;;;;;6111850;22;90838;-88
2023/07/22 09:55:34;;;;;;;5.13;2.55;;;24.30;47.50;;;;;;6097751;22;90480;-87
2023/07/22 09:58:09;;;;;;;4.30;2.40;;;24.30;47.50;;;;;;6139640;22;88275;-89
2023/07/22 10:00:36;;;;;;;6.00;2.58;;;24.30;47.00;;;;;;6115821;22;89519;-89
2023/07/22 10:03:06;;;;;;;6.55;2.28;;;24.30;47.60;;;;;;6115197;22;89365;-87
2023/07/22 10:05:34;;;;;;;4.32;2.03;;;24.40;47.10;;;;;;6113673;22;87697;-88
2023/07/22 10:08:01;;;;;;;2.70;1.73;;;24.30;47.60;;;;;;6113370;22;87396;-89
2023/07/22 10:10:31;;;;;;;3.72;2.13;;;24.40;47.30;;;;;;6139536;22;87407;-89
2023/07/22 10:12:57;;;;;;;6.03;2.33;;;24.30;47.60;;;;;;6140944;22;87466;-89
2023/07/22 10:15:26;;;;;;;4.35;1.83;;;24.30;47.10;;;;;;6114143;22;90275;-89
2023/07/22 10:17:53;;;;;;;4.38;1.83;;;24.30;46.50;;;;;;6115518;22;87518;-90
2023/07/22 10:20:19;;;;;;;5.47;2.33;;;24.40;46.30;;;;;;6140461;22;86896;-88
2023/07/22 10:22:47;;;;;;;2.88;2.13;;;24.40;46.20;;;;;;6113908;22;91403;-89
2023/07/22 10:25:16;;;;;;;5.15;2.03;;;24.40;46.50;;;;;;6099919;22;90891;-90
2023/07/22 10:27:42;;;;;;;4.78;1.90;;;24.40;46.70;;;;;;6113019;22;87755;-90
2023/07/22 10:30:14;;;;;;;4.45;1.88;;;24.40;45.70;;;;;;6141043;22;87231;-89
2023/07/22 10:32:43;;;;;;;5.03;1.90;;;24.40;45.90;;;;;;6113309;22;90987;-89
2023/07/22 10:35:21;;;;;;;3.35;1.63;;;24.40;45.80;;;;;;6112238;22;89020;-89
2023/07/22 10:37:47;;;;;;;3.72;1.95;;;24.40;46.50;;;;;;6113332;22;87776;-89
2023/07/22 10:40:29;;;;;;;2.20;1.60;;;24.40;46.80;;;;;;6139827;22;86175;-91
2023/07/22 10:42:59;;;;;;;3.22;1.60;;;24.40;46.40;;;;;;6113714;22;90761;-89
2023/07/22 10:45:28;;;;;;;4.35;1.60;;;24.40;46.30;;;;;;6141776;22;88046;-88
2023/07/22 10:48:05;;;;;;;4.47;1.88;;;24.40;46.70;;;;;;6114183;22;88214;-88
2023/07/22 10:50:42;;;;;;;3.33;1.55;;;24.40;46.60;;;;;;6112969;22;91173;-88
2023/07/22 10:53:21;;;;;;;6.00;1.80;;;24.40;46.20;;;;;;6112007;22;90313;-89
2023/07/22 10:56:08;;;;;;;5.60;1.90;;;24.40;46.30;;;;;;6112526;22;89970;-90
2023/07/22 10:58:56;;;;;;;3.60;1.45;;;24.40;45.90;;;;;;6115795;22;87248;-91
2023/07/22 11:01:27;;;;;;;2.88;1.80;;;24.40;44.90;;;;;;6117413;22;89562;-89
2023/07/22 11:04:12;;;;;;;2.42;1.95;;;24.40;45.40;;;;;;6116642;22;90525;-88
2023/07/22 11:06:59;;;;;;;3.75;1.70;;;24.40;44.90;;;;;;6113900;22;89246;-90
2023/07/22 11:09:27;;;;;;;3.08;1.77;;;24.40;44.70;;;;;;6113860;22;87468;-89
2023/07/22 11:11:58;;;;;;;4.03;2.00;;;24.40;45.40;;;;;;6141664;22;87580;-88
2023/07/22 11:14:25;;;;;;;4.05;1.70;;;24.40;44.80;;;;;;6113292;22;91493;-89
2023/07/22 11:16:51;;;;;;;4.05;2.08;;;24.40;44.50;;;;;;6113189;22;89891;-88
2023/07/22 11:19:19;;;;;;;4.43;2.20;;;24.40;44.20;;;;;;6115809;22;87183;-90
2023/07/22 11:21:48;;;;;;;3.58;1.60;;;24.40;44.40;;;;;;6117361;22;89239;-91
2023/07/22 11:24:15;;;;;;;4.13;1.80;;;24.40;44.30;;;;;;6119539;22;90736;-91
2023/07/22 11:26:41;;;;;;;2.45;1.70;;;24.40;44.40;;;;;;6119029;22;89267;-90
2023/07/22 11:29:07;;;;;;;3.63;1.88;;;24.40;44.40;;;;;;6118164;22;87485;-91
2023/07/22 11:31:42;;;;;;;4.35;1.70;;;24.40;44.30;;;;;;6115644;22;89085;-88
2023/07/22 11:34:22;;;;;;;4.10;1.90;;;24.40;44.60;;;;;;6140529;22;87664;-89
2023/07/22 11:36:49;;;;;;;3.10;1.95;;;24.40;44.30;;;;;;6141820;22;87810;-89
2023/07/22 11:39:16;;;;;;;6.88;2.03;;;24.40;44.30;;;;;;6141361;22;88745;-89
2023/07/22 11:41:43;;;;;;;3.35;1.85;;;24.40;43.90;;;;;;6139282;22;87601;-90
2023/07/22 11:44:12;;;;;;;4.32;1.98;;;24.40;42.80;;;;;;6110599;22;90611;-88
2023/07/22 11:46:54;;;;;;;3.75;2.05;;;24.40;43.70;;;;;;6138636;22;88218;-88
2023/07/22 11:49:27;;;;;;;4.50;2.25;;;24.40;43.80;;;;;;6110730;22;87565;-89
2023/07/22 11:51:59;;;;;;;2.63;1.67;;;24.40;44.10;;;;;;6111210;22;89750;-88
2023/07/22 11:54:26;;;;;;;4.45;1.85;;;24.40;43.70;;;;;;6111037;22;90506;-89
2023/07/22 11:56:51;;;;;;;3.70;1.92;;;24.40;43.20;;;;;;6115482;22;89923;-90
2023/07/22 11:59:31;;;;;;;7.30;2.05;;;24.40;42.10;;;;;;6112281;22;87002;-91
2023/07/22 12:01:57;;;;;;;3.15;1.67;;;24.40;42.60;;;;;;6113581;22;91990;-88
2023/07/22 12:04:23;;;;;;;3.42;1.80;;;24.40;43.00;;;;;;6111643;22;91589;-88
2023/07/22 12:06:49;;;;;;;2.33;1.60;;;24.40;42.50;;;;;;6112177;22;91001;-89
2023/07/22 12:09:15;;;;;;;2.78;1.40;;;24.40;42.50;;;;;;6115422;22;87282;-90
2023/07/22 12:11:40;;;;;;;3.72;1.48;;;24.40;42.30;;;;;;6113620;22;89552;-90
2023/07/22 12:14:10;;;;;;;4.57;1.50;;;24.30;42.00;;;;;;6139943;22;88796;-89
2023/07/22 12:16:37;;;;;;;4.05;1.67;;;24.30;41.90;;;;;;6114066;22;90303;-89
2023/07/22 12:19:03;;;;;;;1.90;1.52;;;24.30;42.10;;;;;;6098928;22;89009;-87
2023/07/22 12:21:29;;;;;;;2.00;1.30;;;24.30;41.80;;;;;;6113773;22;89569;-88
2023/07/22 12:23:55;;;;;;;2.42;1.48;;;24.30;41.90;;;;;;6115844;22;90145;-90
2023/07/22 12:26:20;;;;;;;1.60;1.40;;;24.30;42.00;;;;;;6111210;22;89716;-89
2023/07/22 12:28:46;;;;;;;2.17;1.30;;;24.30;42.00;;;;;;6113386;22;88694;-88
2023/07/22 12:31:12;;;;;;;2.65;1.50;;;24.30;41.70;;;;;;6113982;22;88977;-88
2023/07/22 12:33:38;;;;;;;3.40;1.70;;;24.30;42.40;;;;;;6113983;22;89595;-88
2023/07/22 12:36:04;;;;;;;2.17;1.40;;;24.40;42.30;;;;;;6143394;22;88276;-88
2023/07/22 12:38:30;;;;;;;3.00;1.48;;;24.40;42.20;;;;;;6141015;22;87217;-88
2023/07/22 12:40:56;;;;;;;4.15;1.65;;;24.40;42.30;;;;;;6140575;22;86954;-88
2023/07/22 12:43:22;;;;;;;5.10;1.55;;;24.40;42.60;;;;;;6098198;22;90604;-88
2023/07/22 12:45:47;;;;;;;6.07;2.17;;;24.40;41.90;;;;;;6138330;22;89857;-88